createdAt,value
2022-08-24T00:04:42.974Z,2.60
2022-08-24T00:09:50.610Z,2.70
2022-08-24T00:14:53.499Z,3.05
2022-08-24T00:19:55.716Z,2.53
2022-08-24T00:24:57.561Z,2.38
2022-08-24T00:30:00.645Z,3.17
2022-08-24T00:35:06.454Z,2.47
2022-08-24T00:40:14.030Z,3.10
2022-08-24T00:45:25.060Z,2.80
2022-08-24T00:50:37.215Z,2.97
2022-08-24T00:55:45.900Z,3.10
2022-08-24T01:00:56.584Z,3.03
2022-08-24T01:05:59.092Z,3.45
2022-08-24T01:11:04.380Z,3.65
2022-08-24T01:16:08.547Z,3.83
2022-08-24T01:21:21.650Z,4.47
2022-08-24T01:26:40.785Z,3.72
2022-08-24T01:31:42.966Z,3.42
2022-08-24T01:36:56.650Z,3.10
2022-08-24T01:42:00.282Z,3.80
2022-08-24T01:47:06.582Z,3.45
2022-08-24T01:52:18.476Z,2.87
2022-08-24T01:57:20.449Z,2.78
2022-08-24T02:02:29.760Z,2.85
2022-08-24T02:07:32.980Z,3.58
2022-08-24T02:12:40.728Z,5.25
2022-08-24T02:22:45.904Z,5.90
2022-08-24T02:27:47.656Z,6.22
2022-08-24T02:32:49.900Z,6.15
2022-08-24T02:37:52.266Z,6.80
2022-08-24T02:42:54.274Z,7.95
2022-08-24T02:47:56.428Z,8.45
2022-08-24T02:52:58.494Z,8.57
2022-08-24T02:58:00.320Z,8.68
2022-08-24T03:03:03.092Z,8.75
2022-08-24T03:08:05.619Z,8.95
2022-08-24T03:13:10.592Z,8.05
2022-08-24T03:18:13.483Z,9.05
2022-08-24T03:23:16.892Z,8.88
2022-08-24T03:28:24.178Z,9.23
2022-08-24T03:33:27.078Z,7.95
2022-08-24T03:38:30.163Z,7.93
2022-08-24T03:43:47.460Z,7.97
2022-08-24T03:48:52.389Z,8.02
2022-08-24T03:53:58.677Z,7.05
2022-08-24T03:59:03.205Z,8.00
2022-08-24T04:04:10.239Z,8.40
2022-08-24T04:09:13.470Z,9.45
2022-08-24T04:14:27.157Z,10.05
2022-08-24T04:19:57.871Z,11.48
2022-08-24T04:30:14.542Z,11.95
2022-08-24T04:35:51.790Z,12.00
2022-08-24T04:40:54.412Z,11.65
2022-08-24T04:45:57.207Z,12.45
2022-08-24T04:51:04.143Z,12.68
2022-08-24T04:56:17.830Z,11.73
2022-08-24T05:01:26.723Z,11.15
2022-08-24T05:06:30.559Z,10.52
2022-08-24T05:11:37.530Z,10.82
2022-08-24T05:16:40.420Z,10.55
2022-08-24T05:21:47.458Z,11.23
2022-08-24T05:26:49.822Z,10.15
2022-08-24T05:31:52.086Z,9.93
2022-08-24T05:36:54.200Z,9.23
2022-08-24T05:42:10.241Z,9.20
2022-08-24T05:47:18.789Z,9.40
2022-08-24T05:52:22.968Z,11.73
2022-08-24T05:57:30.788Z,8.70
2022-08-24T06:02:44.448Z,7.70
2022-08-24T06:07:46.420Z,7.88
2022-08-24T06:12:49.039Z,6.47
2022-08-24T06:17:50.899Z,6.68
2022-08-24T06:22:52.570Z,5.72
2022-08-24T06:27:56.693Z,6.10
2022-08-24T06:33:02.872Z,4.82
2022-08-24T06:38:17.658Z,4.93
2022-08-24T06:43:24.277Z,4.22
2022-08-24T06:48:31.086Z,3.80
2022-08-24T06:53:32.809Z,5.80
2022-08-24T06:58:35.849Z,3.63
2022-08-24T07:03:41.351Z,3.55
2022-08-24T07:08:56.624Z,3.80
2022-08-24T07:13:58.692Z,3.33
2022-08-24T07:19:05.450Z,3.88
2022-08-24T07:24:07.572Z,2.90
2022-08-24T07:29:36.879Z,2.95
2022-08-24T07:34:39.552Z,2.47
2022-08-24T07:39:42.867Z,2.13
2022-08-24T07:44:46.584Z,2.42
2022-08-24T07:49:49.303Z,2.42
2022-08-24T07:54:51.400Z,2.50
2022-08-24T07:59:53.667Z,2.50
2022-08-24T08:04:56.507Z,1.58
2022-08-24T08:09:58.363Z,1.80
2022-08-24T08:15:00.098Z,1.35
2022-08-24T08:20:02.719Z,1.50
2022-08-24T08:25:07.501Z,1.60
2022-08-24T08:30:09.745Z,1.70
2022-08-24T08:35:12.854Z,1.92
2022-08-24T08:40:55.483Z,1.88
2022-08-24T08:46:22.238Z,1.90
2022-08-24T08:52:26.956Z,2.70
2022-08-24T08:58:00.618Z,2.20
2022-08-24T09:03:23.896Z,2.45
2022-08-24T09:09:22.298Z,2.25
2022-08-24T09:20:06.003Z,2.20
2022-08-24T09:25:26.313Z,2.53
2022-08-24T09:31:05.550Z,1.80
2022-08-24T09:36:14.087Z,2.05
2022-08-24T09:41:34.324Z,1.47
2022-08-24T09:47:07.375Z,1.80
2022-08-24T09:52:15.148Z,3.00
2022-08-24T09:57:59.823Z,1.52
2022-08-24T10:03:23.849Z,1.10
2022-08-24T10:08:54.852Z,3.70
2022-08-24T10:14:08.616Z,1.60
2022-08-24T10:19:19.587Z,2.10
2022-08-24T10:24:35.985Z,1.55
2022-08-24T10:29:52.711Z,2.30
2022-08-24T10:35:05.884Z,1.90
2022-08-24T10:40:37.916Z,1.90
2022-08-24T10:46:01.456Z,1.85
2022-08-24T10:51:40.170Z,1.80
2022-08-24T10:56:57.154Z,1.80
2022-08-24T11:02:30.306Z,2.92
2022-08-24T11:07:32.672Z,2.33
2022-08-24T11:12:36.666Z,2.60
2022-08-24T11:17:52.506Z,2.10
2022-08-24T11:23:02.898Z,3.72
2022-08-24T11:28:20.334Z,2.70
2022-08-24T11:33:31.383Z,2.88
2022-08-24T11:38:36.356Z,2.72
2022-08-24T11:43:38.071Z,2.38
2022-08-24T11:49:23.698Z,1.80
2022-08-24T11:54:43.214Z,1.85
2022-08-24T12:00:01.294Z,1.17
2022-08-24T12:05:42.676Z,1.52
2022-08-24T12:11:08.673Z,1.30
2022-08-24T12:16:33.899Z,1.05
2022-08-24T12:21:40.763Z,0.90
2022-08-24T12:26:47.255Z,1.20
2022-08-24T12:31:59.391Z,1.10
2022-08-24T12:37:22.102Z,1.50
2022-08-24T12:42:39.073Z,0.90
2022-08-24T12:47:56.684Z,1.05
2022-08-24T12:53:12.149Z,1.38
2022-08-24T12:58:51.781Z,1.30
2022-08-24T13:04:30.277Z,1.02
2022-08-24T13:09:39.327Z,1.25
2022-08-24T13:14:45.320Z,1.08
2022-08-24T13:20:24.153Z,0.90
2022-08-24T13:25:52.809Z,1.13
2022-08-24T13:31:19.730Z,0.80
2022-08-24T13:36:39.976Z,1.00
2022-08-24T13:42:10.270Z,1.25
2022-08-24T13:47:18.751Z,2.35
2022-08-24T13:52:47.255Z,1.55
2022-08-24T13:58:03.637Z,1.60
2022-08-24T14:03:24.659Z,1.30
2022-08-24T14:08:51.008Z,1.10
2022-08-24T14:14:01.986Z,1.80
2022-08-24T14:19:17.228Z,1.65
2022-08-24T14:24:36.397Z,1.42
2022-08-24T14:35:12.375Z,1.77
2022-08-24T14:40:26.806Z,1.77
2022-08-24T14:45:52.600Z,1.98
2022-08-24T14:50:58.955Z,2.78
2022-08-24T14:56:24.912Z,3.08
2022-08-24T15:01:50.582Z,2.60
2022-08-24T15:06:57.137Z,2.13
2022-08-24T15:12:26.024Z,2.17
2022-08-24T15:17:44.500Z,2.37
2022-08-24T15:23:10.446Z,2.57
2022-08-24T15:28:23.230Z,3.25
2022-08-24T15:33:26.603Z,2.60
2022-08-24T15:38:28.180Z,3.38
2022-08-24T15:43:30.159Z,3.38
2022-08-24T15:48:35.060Z,3.15
2022-08-24T15:53:41.103Z,3.53
2022-08-24T15:58:42.842Z,3.35
2022-08-24T16:03:58.511Z,3.50
2022-08-24T16:09:18.353Z,4.60
2022-08-24T16:14:32.150Z,3.63
2022-08-24T16:19:35.337Z,4.25
2022-08-24T16:24:42.241Z,3.42
2022-08-24T16:29:53.433Z,3.75
2022-08-24T16:35:01.400Z,3.17
2022-08-24T16:40:04.554Z,2.63
2022-08-24T16:45:14.980Z,3.35
2022-08-24T16:50:50.524Z,3.92
2022-08-24T16:55:59.133Z,2.70
2022-08-24T17:01:03.301Z,2.73
2022-08-24T17:06:05.556Z,3.63
2022-08-24T17:11:07.521Z,3.00
2022-08-24T17:16:12.655Z,2.13
2022-08-24T17:21:14.489Z,2.58
2022-08-24T17:26:20.232Z,2.17
2022-08-24T17:31:24.827Z,2.33
2022-08-24T17:36:31.147Z,2.60
2022-08-24T17:41:35.251Z,3.58
2022-08-24T17:46:37.302Z,3.15
2022-08-24T17:51:46.805Z,3.47
2022-08-24T17:56:55.468Z,3.17
2022-08-24T18:02:09.646Z,2.78
2022-08-24T18:07:25.669Z,5.60
2022-08-24T18:12:39.101Z,5.95
2022-08-24T18:17:48.492Z,6.10
2022-08-24T18:22:52.827Z,7.47
2022-08-24T18:27:58.864Z,7.47
2022-08-24T18:33:01.904Z,7.68
2022-08-24T18:38:03.931Z,7.20
2022-08-24T18:43:06.010Z,6.20
2022-08-24T18:48:08.041Z,6.75
2022-08-24T18:53:10.369Z,6.43
2022-08-24T18:58:15.097Z,6.28
2022-08-24T19:03:19.248Z,6.28
2022-08-24T19:08:21.219Z,4.97
2022-08-24T19:13:23.024Z,6.22
2022-08-24T19:18:27.938Z,4.90
2022-08-24T19:23:34.224Z,5.97
2022-08-24T19:29:07.937Z,5.25
2022-08-24T19:34:14.252Z,5.32
2022-08-24T19:39:16.253Z,5.57
2022-08-24T19:44:38.795Z,4.38
2022-08-24T19:49:43.428Z,4.82
2022-08-24T19:54:47.044Z,5.47
2022-08-24T19:59:51.548Z,5.22
2022-08-24T20:04:53.284Z,5.25
2022-08-24T20:09:54.973Z,4.88
2022-08-24T20:14:56.792Z,4.68
2022-08-24T20:19:58.612Z,5.97
2022-08-24T20:25:00.456Z,5.30
2022-08-24T20:30:02.626Z,5.60
2022-08-24T20:35:05.129Z,6.68
2022-08-24T20:40:07.959Z,8.60
2022-08-24T20:45:11.457Z,7.32
2022-08-24T20:50:15.200Z,8.80
2022-08-24T20:55:20.010Z,8.57
2022-08-24T21:00:24.004Z,10.65
2022-08-24T21:05:25.931Z,10.00
2022-08-24T21:10:27.592Z,9.95
2022-08-24T21:15:29.355Z,11.32
2022-08-24T21:20:32.759Z,10.60
2022-08-24T21:25:34.425Z,10.63
2022-08-24T21:30:36.087Z,11.50
2022-08-24T21:35:38.078Z,14.93
2022-08-24T21:40:39.887Z,14.20
2022-08-24T21:45:42.530Z,14.23
2022-08-24T21:50:48.350Z,15.43
2022-08-24T21:55:53.190Z,12.90
2022-08-24T22:00:59.095Z,13.85
2022-08-24T22:06:01.158Z,14.98
2022-08-24T22:11:02.765Z,15.05
2022-08-24T22:16:06.334Z,15.75
2022-08-24T22:21:18.374Z,14.73
2022-08-24T22:26:21.040Z,14.70
2022-08-24T22:31:32.441Z,15.80
2022-08-24T22:36:35.089Z,15.15
2022-08-24T22:41:37.750Z,16.70
2022-08-24T22:46:52.145Z,15.63
2022-08-24T22:51:56.567Z,15.43
2022-08-24T22:57:01.274Z,13.90
2022-08-24T23:02:15.335Z,14.63
2022-08-24T23:07:18.299Z,15.38
2022-08-24T23:12:23.249Z,14.10
2022-08-24T23:17:25.059Z,13.02
2022-08-24T23:22:30.716Z,13.95
2022-08-24T23:27:38.257Z,13.65
2022-08-24T23:32:41.082Z,15.03
2022-08-24T23:37:43.005Z,14.63
2022-08-24T23:42:44.846Z,14.90
2022-08-24T23:47:47.599Z,13.05
2022-08-24T23:52:49.297Z,15.75
2022-08-24T23:57:53.029Z,14.60
